Time;durP1;ratioP1;P1;durP2;ratioP2;P2;SDS_P1;SDS_P2;PMS_P1;PMS_P2;Temp;Humidity;BMP_temperature;BMP_pressure;BME280_temperature;BME280_humidity;BME280_pressure;Samples;Min_cycle;Max_cycle;Signal;HPM_P1;HPM_P2
2024/04/09 00:01:53;;;;;;;7.00;4.05;;;;;;;15.37;51.57;100063.13;5378312;26;20036;-38
2024/04/09 00:04:19;;;;;;;9.02;3.90;;;;;;;15.36;51.75;100064.16;5377914;26;19992;-40
2024/04/09 00:06:45;;;;;;;7.13;3.63;;;;;;;15.49;51.42;100063.16;5377879;26;20411;-40
2024/04/09 00:09:11;;;;;;;6.97;3.75;;;;;;;15.40;52.14;100057.31;5378165;26;20058;-39
2024/04/09 00:11:37;;;;;;;9.82;4.00;;;;;;;15.38;51.59;100054.03;5377726;26;20011;-39
2024/04/09 00:14:04;;;;;;;12.20;4.28;;;;;;;15.48;51.08;100044.59;5377877;26;20554;-39
2024/04/09 00:16:33;;;;;;;7.63;4.03;;;;;;;15.39;51.84;100041.44;5377698;26;20401;-39
2024/04/09 00:18:59;;;;;;;11.07;4.88;;;;;;;15.34;51.42;100052.84;5378280;26;19996;-39
2024/04/09 00:21:28;;;;;;;8.10;4.45;;;;;;;15.34;51.77;100043.97;5381439;26;20050;-38
2024/04/09 00:23:56;;;;;;;7.78;3.97;;;;;;;15.42;51.26;100040.97;5381078;26;20000;-40
2024/04/09 00:26:22;;;;;;;7.55;4.30;;;;;;;15.41;50.52;100042.84;5380789;26;19996;-39
2024/04/09 00:28:48;;;;;;;6.03;4.15;;;;;;;15.40;50.64;100035.03;5380967;26;19996;-37
2024/04/09 00:31:13;;;;;;;9.27;4.88;;;;;;;15.29;50.80;100035.78;5380567;26;20011;-39
2024/04/09 00:33:38;;;;;;;6.78;4.45;;;;;;;15.25;50.71;100030.09;5380732;26;20706;-37
2024/04/09 00:36:04;;;;;;;8.68;4.70;;;;;;;15.21;50.52;100027.03;5380562;26;19996;-38
2024/04/09 00:38:29;;;;;;;6.30;4.43;;;;;;;15.27;50.40;100027.16;5380353;26;20012;-39
2024/04/09 00:40:55;;;;;;;10.93;4.57;;;;;;;15.28;49.88;100040.34;5380840;26;20000;-39
2024/04/09 00:43:20;;;;;;;6.88;4.70;;;;;;;14.95;50.71;100033.56;5380625;26;20015;-39
2024/04/09 00:45:47;;;;;;;14.93;4.60;;;;;;;14.85;51.54;100036.78;5379963;26;20015;-38
2024/04/09 00:48:13;;;;;;;12.55;5.13;;;;;;;14.92;52.11;100038.53;5380323;26;20077;-39
2024/04/09 00:50:42;;;;;;;9.95;4.75;;;;;;;14.90;52.44;100044.13;5380478;26;20093;-39
2024/04/09 00:53:11;;;;;;;7.32;4.60;;;;;;;14.90;52.03;100029.91;5380259;26;19996;-38
2024/04/09 00:55:40;;;;;;;9.60;4.97;;;;;;;14.62;51.58;99988.41;5380767;26;20074;-39
2024/04/09 00:58:09;;;;;;;6.82;4.78;;;;;;;15.04;50.99;100039.41;5380674;26;20011;-39
2024/04/09 01:00:35;;;;;;;9.02;4.72;;;;;;;15.04;50.92;100032.22;5380358;26;20006;-39
2024/04/09 01:03:00;;;;;;;7.15;4.78;;;;;;;15.00;50.95;100038.22;5380435;26;20482;-39
2024/04/09 01:05:26;;;;;;;8.60;4.63;;;;;;;14.91;51.69;100031.53;5380457;26;20054;-39
2024/04/09 01:07:51;;;;;;;6.60;4.75;;;;;;;14.83;51.69;100033.50;5380211;26;20304;-39
2024/04/09 01:10:17;;;;;;;6.70;4.45;;;;;;;14.80;51.93;100033.13;5380495;26;20353;-39
2024/04/09 01:12:42;;;;;;;10.23;4.60;;;;;;;14.86;51.64;100027.66;5380406;26;20000;-39
2024/04/09 01:15:10;;;;;;;6.68;4.30;;;;;;;14.82;51.56;100023.81;5380098;26;20444;-40
2024/04/09 01:17:36;;;;;;;7.97;4.45;;;;;;;14.88;51.10;100026.66;5379963;26;20018;-39
2024/04/09 01:20:02;;;;;;;6.13;4.88;;;;;;;14.76;51.63;100026.59;5380403;26;19996;-38
2024/04/09 01:22:31;;;;;;;8.07;4.70;;;;;;;14.62;51.81;100023.22;5380657;26;19997;-38
2024/04/09 01:24:57;;;;;;;6.47;4.30;;;;;;;14.55;52.16;100031.31;5380128;26;20012;-40
2024/04/09 01:27:22;;;;;;;7.93;4.75;;;;;;;14.56;52.17;100032.13;5380367;26;20081;-40
2024/04/09 01:29:49;;;;;;;9.50;4.80;;;;;;;14.61;52.39;100029.63;5379799;26;19998;-39
2024/04/09 01:32:15;;;;;;;7.63;4.43;;;;;;;14.68;52.14;100025.03;5378907;26;20000;-40
2024/04/09 01:34:40;;;;;;;6.97;4.38;;;;;;;14.51;52.60;100024.75;5373904;26;19993;-39
2024/04/09 01:37:11;;;;;;;7.35;4.60;;;;;;;14.57;52.77;100025.75;5352127;26;19992;-40
2024/04/09 01:39:40;;;;;;;7.25;4.50;;;;;;;14.40;53.01;100022.81;5379211;26;20395;-39
2024/04/09 01:42:05;;;;;;;6.70;4.25;;;;;;;14.39;53.13;100032.72;5377187;26;20324;-37
2024/04/09 01:44:32;;;;;;;6.78;4.80;;;;;;;14.33;53.79;100040.78;5378993;26;19996;-39
2024/04/09 01:46:58;;;;;;;6.13;4.50;;;;;;;14.36;53.42;100037.69;5379351;26;20054;-37
2024/04/09 01:49:25;;;;;;;8.77;4.95;;;;;;;14.28;53.86;100038.78;5378995;26;19996;-39
2024/04/09 01:51:51;;;;;;;7.72;4.57;;;;;;;14.16;53.89;100036.00;5379152;26;20515;-39
2024/04/09 01:54:16;;;;;;;6.20;4.43;;;;;;;14.00;54.62;100039.25;5378887;26;19996;-37
2024/04/09 01:56:42;;;;;;;7.53;4.85;;;;;;;14.04;54.44;100032.41;5379625;26;20004;-39
2024/04/09 01:59:07;;;;;;;7.03;4.78;;;;;;;14.26;53.87;100044.38;5379476;26;20000;-39
2024/04/09 02:01:33;;;;;;;6.07;4.20;;;;;;;14.21;54.01;100043.38;5379373;26;20352;-39
2024/04/09 02:04:01;;;;;;;8.85;4.43;;;;;;;14.22;53.57;100037.81;5379526;26;19996;-39
2024/04/09 02:06:28;;;;;;;7.57;4.30;;;;;;;14.32;53.26;100045.34;5379288;26;19996;-38
2024/04/09 02:08:53;;;;;;;7.78;4.15;;;;;;;14.32;53.32;100055.22;5379099;26;20332;-39
2024/04/09 02:11:22;;;;;;;7.53;4.13;;;;;;;14.15;53.53;100036.25;5379661;26;20495;-40
2024/04/09 02:13:48;;;;;;;5.20;3.65;;;;;;;14.22;53.46;100047.69;5377720;26;20000;-40
2024/04/09 02:16:16;;;;;;;5.75;3.70;;;;;;;14.21;53.11;100046.88;5353866;26;20008;-39
2024/04/09 02:18:42;;;;;;;6.78;4.00;;;;;;;14.14;53.23;100045.28;5344369;26;20009;-40
2024/04/09 02:21:09;;;;;;;7.20;3.95;;;;;;;14.10;53.71;100050.25;5344675;26;19997;-40
2024/04/09 02:23:35;;;;;;;7.40;3.55;;;;;;;14.05;53.07;100048.25;5342729;26;20007;-39
2024/04/09 02:26:01;;;;;;;4.40;3.22;;;;;;;14.12;53.06;100053.53;5344778;26;20634;-39
2024/04/09 02:28:27;;;;;;;7.65;3.00;;;;;;;13.94;53.38;100048.97;5343820;26;20029;-39
2024/04/09 02:30:52;;;;;;;5.60;3.55;;;;;;;13.80;53.65;100058.09;5345276;26;20326;-40
2024/04/09 02:33:17;;;;;;;4.10;3.17;;;;;;;13.86;53.72;100050.06;5344780;26;20011;-39
2024/04/09 02:35:57;;;;;;;6.18;3.28;;;;;;;13.78;53.85;100044.13;5344821;26;20016;-40
2024/04/09 02:38:24;;;;;;;7.85;3.33;;;;;;;13.82;54.09;100048.00;5374750;26;20077;-39
2024/04/09 02:40:50;;;;;;;6.65;3.53;;;;;;;13.85;53.89;100053.75;5379197;26;20011;-40
2024/04/09 02:43:15;;;;;;;10.20;4.10;;;;;;;13.85;53.99;100051.06;5379514;26;20000;-39
2024/04/09 02:45:40;;;;;;;4.78;3.65;;;;;;;13.91;53.85;100043.22;5379652;26;20428;-40
2024/04/09 02:48:06;;;;;;;6.22;3.85;;;;;;;13.87;53.62;100040.97;5379924;26;20000;-39
2024/04/09 02:50:32;;;;;;;6.18;3.78;;;;;;;13.68;53.74;100041.94;5379463;26;20008;-41
2024/04/09 02:52:57;;;;;;;5.90;3.50;;;;;;;13.45;53.86;100043.31;5380169;26;20396;-39
2024/04/09 02:55:22;;;;;;;5.60;3.83;;;;;;;13.63;53.42;100050.63;5379672;26;20421;-39
2024/04/09 02:57:48;;;;;;;5.85;3.70;;;;;;;13.65;53.06;100050.38;5379003;26;20000;-39
2024/04/09 03:00:19;;;;;;;7.25;3.90;;;;;;;13.52;53.11;100045.97;5379393;26;20007;-39
2024/04/09 03:02:53;;;;;;;6.25;3.63;;;;;;;13.54;52.22;100051.91;5379287;26;20305;-38
2024/04/09 03:05:29;;;;;;;6.68;3.83;;;;;;;13.60;51.96;100056.41;5379340;26;19996;-39
2024/04/09 03:07:55;;;;;;;7.10;4.05;;;;;;;13.63;51.71;100057.81;5378789;26;20000;-38
2024/04/09 03:10:21;;;;;;;6.70;3.85;;;;;;;13.42;51.47;100054.47;5379688;26;20012;-40
2024/04/09 03:12:46;;;;;;;6.03;4.70;;;;;;;13.51;51.26;100044.31;5379049;26;20445;-39
2024/04/09 03:15:12;;;;;;;9.20;4.30;;;;;;;13.50;50.88;100048.03;5378493;26;20463;-40
2024/04/09 03:17:40;;;;;;;6.47;3.88;;;;;;;13.18;51.39;100041.81;5378801;26;20449;-39
2024/04/09 03:20:07;;;;;;;6.63;3.90;;;;;;;13.33;51.37;100046.88;5379264;26;20028;-39
2024/04/09 03:22:32;;;;;;;6.13;4.28;;;;;;;13.43;51.53;100052.59;5404164;26;19996;-40
2024/04/09 03:24:57;;;;;;;6.90;3.95;;;;;;;13.47;52.53;100053.81;5412540;26;20342;-40
2024/04/09 03:27:23;;;;;;;6.35;4.03;;;;;;;13.54;51.56;100048.44;5414047;26;19995;-40
2024/04/09 03:29:48;;;;;;;6.13;3.90;;;;;;;13.64;51.33;100052.25;5414133;26;20000;-40
2024/04/09 03:32:14;;;;;;;5.15;3.78;;;;;;;13.62;51.47;100054.31;5414314;26;20011;-40
2024/04/09 03:34:39;;;;;;;8.68;4.13;;;;;;;13.67;51.13;100048.34;5414232;26;19992;-40
2024/04/09 03:37:04;;;;;;;6.75;4.00;;;;;;;13.45;53.21;100047.84;5411746;26;20083;-40
2024/04/09 03:39:30;;;;;;;6.38;3.88;;;;;;;13.42;53.06;100045.59;5378853;26;20000;-38
2024/04/09 03:41:55;;;;;;;10.98;4.13;;;;;;;13.52;52.67;100054.00;5378028;26;20000;-42
2024/04/09 03:44:21;;;;;;;10.77;4.03;;;;;;;13.26;53.82;100049.56;5379423;26;20126;-41
2024/04/09 03:46:46;;;;;;;5.97;3.70;;;;;;;13.00;52.82;100051.31;5378436;26;20490;-39
2024/04/09 03:49:11;;;;;;;9.02;3.65;;;;;;;12.98;52.13;100052.56;5378656;26;20014;-39
2024/04/09 03:51:37;;;;;;;5.88;3.50;;;;;;;13.05;52.83;100048.84;5378719;26;20011;-40
2024/04/09 03:54:02;;;;;;;7.40;3.50;;;;;;;13.11;52.71;100052.53;5378122;26;20594;-40
2024/04/09 03:56:28;;;;;;;6.82;3.40;;;;;;;13.12;52.13;100054.16;5378963;26;19997;-41
2024/04/09 03:58:54;;;;;;;4.88;3.60;;;;;;;13.19;52.38;100060.28;5414186;26;20422;-41
2024/04/09 04:01:19;;;;;;;6.18;3.40;;;;;;;13.33;52.46;100063.75;5414462;26;20442;-38
2024/04/09 04:03:48;;;;;;;6.68;3.38;;;;;;;13.60;53.38;100072.44;5414793;26;19996;-40
2024/04/09 04:06:15;;;;;;;4.57;3.17;;;;;;;13.86;52.00;100074.13;5413113;26;20148;-39
2024/04/09 04:08:42;;;;;;;10.43;3.85;;;;;;;14.15;51.03;100074.53;5414353;26;20007;-40
2024/04/09 04:11:09;;;;;;;12.88;4.60;;;;;;;14.48;50.28;100076.06;5380170;26;20025;-41
2024/04/09 04:13:35;;;;;;;13.70;4.70;;;;;;;14.72;50.25;100076.28;5378933;26;20040;-40
2024/04/09 04:16:25;;;;;;;12.88;5.03;;;;;;;15.03;49.75;100081.47;5378668;26;20011;-42
2024/04/09 04:18:50;;;;;;;13.88;4.53;;;;;;;15.33;48.91;100080.72;5378426;26;20082;-41
2024/04/09 04:21:23;;;;;;;12.07;5.25;;;;;;;15.56;48.53;100082.66;5376300;26;20004;-39
2024/04/09 04:23:56;;;;;;;11.82;4.60;;;;;;;15.74;48.17;100070.25;5377483;26;19996;-40
2024/04/09 04:26:25;;;;;;;10.10;4.55;;;;;;;15.98;47.71;100088.06;5377612;26;19996;-41
2024/04/09 04:28:52;;;;;;;9.65;3.90;;;;;;;16.20;46.64;100095.53;5377101;26;19993;-40
2024/04/09 04:31:29;;;;;;;9.45;3.60;;;;;;;16.64;45.23;100093.38;5376692;26;19996;-41
2024/04/09 04:33:54;;;;;;;9.18;3.83;;;;;;;16.85;44.35;100091.13;5384367;26;20011;-41
2024/04/09 04:36:20;;;;;;;24.60;8.98;;;;;;;17.49;61.07;100091.88;5385405;26;20404;-40
2024/04/09 04:38:47;;;;;;;5.50;3.25;;;;;;;17.98;43.61;100094.13;5380727;26;20000;-40
2024/04/09 04:41:13;;;;;;;6.22;3.38;;;;;;;18.17;41.26;100098.19;5392135;26;20073;-39
2024/04/09 04:43:39;;;;;;;7.32;3.33;;;;;;;18.36;40.70;100082.59;5378702;26;20306;-39
2024/04/09 04:46:05;;;;;;;6.45;4.05;;;;;;;18.65;40.47;100092.44;5379043;26;20031;-40
2024/04/09 04:48:30;;;;;;;9.23;4.80;;;;;;;18.70;39.74;100087.13;5378735;26;20012;-39
2024/04/09 04:50:56;;;;;;;9.10;3.70;;;;;;;19.04;39.12;100090.56;5386022;26;20011;-41
2024/04/09 04:53:23;;;;;;;6.25;3.40;;;;;;;19.19;38.67;100097.19;5414471;26;20036;-40
2024/04/09 04:55:51;;;;;;;13.80;7.07;;;;;;;19.41;38.55;100099.88;5403844;26;19995;-38
2024/04/09 04:58:17;;;;;;;8.18;4.72;;;;;;;19.64;38.63;100093.38;5412069;26;20365;-40
2024/04/09 05:00:43;;;;;;;5.95;3.40;;;;;;;19.63;38.56;100091.72;5408254;26;20015;-44
2024/04/09 05:03:09;;;;;;;6.47;3.15;;;;;;;19.85;38.25;100097.91;5389674;26;19999;-38
2024/04/09 05:05:35;;;;;;;7.05;3.03;;;;;;;20.24;37.36;100099.63;5410782;26;19999;-40
2024/04/09 05:08:00;;;;;;;9.88;2.83;;;;;;;20.75;36.79;100105.34;5382133;26;20080;-38
2024/04/09 05:10:26;;;;;;;7.72;3.28;;;;;;;20.63;36.53;100105.56;5391438;26;20073;-38
2024/04/09 05:12:53;;;;;;;5.75;2.85;;;;;;;21.18;35.49;100094.47;5395050;26;20181;-40
2024/04/09 05:15:19;;;;;;;5.68;2.80;;;;;;;21.50;35.44;100101.66;5396939;26;20085;-36
2024/04/09 05:17:46;;;;;;;6.53;3.20;;;;;;;21.60;35.12;100090.81;5397945;26;20000;-41
2024/04/09 05:20:14;;;;;;;6.68;2.90;;;;;;;22.03;34.16;100096.84;5407873;26;20048;-38
2024/04/09 05:22:50;;;;;;;7.65;3.00;;;;;;;22.44;33.29;100099.53;5381587;26;20004;-39
2024/04/09 05:25:17;;;;;;;6.55;2.78;;;;;;;22.81;33.16;100104.59;5390971;26;20069;-36
2024/04/09 05:27:46;;;;;;;4.10;3.00;;;;;;;23.11;32.64;100097.44;5397921;26;20011;-39
2024/04/09 05:30:12;;;;;;;9.85;3.28;;;;;;;23.44;31.98;100092.41;5379083;26;20094;-41
2024/04/09 05:32:41;;;;;;;8.40;2.90;;;;;;;23.61;31.52;100103.72;5369365;26;20000;-40
2024/04/09 05:35:07;;;;;;;;;;;;;;;24.01;30.75;100095.59;5381911;26;20010;-37
2024/04/09 05:37:33;;;;;;;6.28;2.65;;;;;;;24.16;30.26;100094.63;5381312;26;20361;-36
2024/04/09 05:39:58;;;;;;;9.27;2.97;;;;;;;24.38;29.90;100094.16;5380821;26;20000;-37
2024/04/09 05:42:24;;;;;;;6.22;2.97;;;;;;;24.59;29.66;100094.78;5380620;26;20007;-35
2024/04/09 05:44:50;;;;;;;3.97;2.50;;;;;;;24.93;29.32;100097.41;5385367;26;20454;-39
2024/04/09 05:47:15;;;;;;;8.25;2.67;;;;;;;25.33;28.69;100103.44;5380524;26;20344;-36
2024/04/09 05:49:41;;;;;;;7.78;2.92;;;;;;;25.67;28.36;100094.25;5380887;26;20000;-39
2024/04/09 05:52:06;;;;;;;6.00;3.10;;;;;;;25.55;28.32;100091.16;5381441;26;20044;-38
2024/04/09 05:54:32;;;;;;;6.28;2.75;;;;;;;25.92;28.06;100095.00;5382080;26;20008;-41
2024/04/09 05:56:58;;;;;;;9.00;3.00;;;;;;;25.90;27.26;100094.44;5380816;26;20000;-26
2024/04/09 05:59:23;;;;;;;9.18;2.50;;;;;;;26.00;26.91;100088.84;5381412;26;20000;-27
2024/04/09 06:01:50;;;;;;;4.63;2.40;;;;;;;26.11;27.21;100090.31;5380733;26;20007;-26
2024/04/09 06:04:16;;;;;;;7.38;2.83;;;;;;;26.43;26.83;100091.38;5363855;26;20048;-27
2024/04/09 06:06:42;;;;;;;6.22;2.65;;;;;;;26.35;26.35;100092.09;5349198;26;20413;-28
2024/04/09 06:09:08;;;;;;;5.82;2.92;;;;;;;26.44;26.30;100090.25;5380653;26;20015;-26
2024/04/09 06:11:34;;;;;;;4.65;2.80;;;;;;;26.76;25.79;100093.25;5380273;26;20007;-27
2024/04/09 06:14:00;;;;;;;7.95;2.80;;;;;;;26.99;25.96;100096.88;5379688;26;19996;-26
2024/04/09 06:16:25;;;;;;;5.53;3.35;;;;;;;27.38;25.19;100087.34;5379635;26;20008;-27
2024/04/09 06:18:51;;;;;;;6.35;2.60;;;;;;;27.31;25.58;100087.75;5380669;26;20498;-27
2024/04/09 06:21:17;;;;;;;5.97;3.50;;;;;;;27.73;25.30;100090.38;5380915;26;20011;-27
2024/04/09 06:23:45;;;;;;;11.93;4.57;;;;;;;27.81;25.07;100084.94;5376511;26;20004;-27
2024/04/09 06:26:10;;;;;;;4.20;2.75;;;;;;;27.54;25.13;100085.88;5381242;26;20000;-26
2024/04/09 06:28:36;;;;;;;5.95;2.78;;;;;;;28.06;24.22;100080.84;5366579;26;20012;-27
2024/04/09 06:31:03;;;;;;;4.85;2.38;;;;;;;28.09;24.13;100095.78;5362572;26;20011;-27
2024/04/09 06:33:28;;;;;;;8.98;2.60;;;;;;;28.44;24.06;100085.88;5344329;26;20044;-30
2024/04/09 06:35:53;;;;;;;6.57;2.53;;;;;;;28.84;23.43;100085.88;5346554;26;20004;-27
2024/04/09 06:38:20;;;;;;;7.13;2.72;;;;;;;29.17;23.60;100088.22;5373498;26;20011;-27
2024/04/09 06:40:47;;;;;;;10.10;3.60;;;;;;;28.76;23.49;100088.59;5380175;26;20004;-27
2024/04/09 06:43:12;;;;;;;6.90;3.78;;;;;;;29.03;23.45;100087.50;5377895;26;20015;-30
2024/04/09 06:45:38;;;;;;;5.70;2.55;;;;;;;28.48;23.63;100083.28;5379635;26;20285;-27
2024/04/09 06:48:05;;;;;;;5.68;2.80;;;;;;;28.10;24.21;100078.25;5378954;26;20008;-26
2024/04/09 06:50:31;;;;;;;5.22;2.80;;;;;;;28.56;23.93;100090.78;5378151;26;20011;-27
2024/04/09 06:52:56;;;;;;;8.25;3.10;;;;;;;28.31;24.10;100083.19;5377795;26;20000;-27
2024/04/09 06:55:21;;;;;;;5.55;3.00;;;;;;;28.48;24.02;100083.28;5378160;26;20336;-28
2024/04/09 06:57:47;;;;;;;7.95;2.75;;;;;;;29.19;23.43;100085.97;5379490;26;19992;-29
2024/04/09 07:00:14;;;;;;;4.28;2.38;;;;;;;29.52;23.11;100090.19;5379461;26;20000;-27
2024/04/09 07:02:43;;;;;;;3.97;2.50;;;;;;;29.71;23.05;100087.13;5380090;26;20069;-28
2024/04/09 07:05:09;;;;;;;;;;;;;;;30.05;22.80;100093.75;5381431;26;20415;-28
2024/04/09 07:07:35;;;;;;;8.85;4.30;;;;;;;30.18;22.98;100093.53;5380221;26;19925;-28
2024/04/09 07:10:01;;;;;;;8.70;3.83;;;;;;;29.38;23.22;100088.41;5380696;26;20000;-27
2024/04/09 07:12:27;;;;;;;5.60;2.80;;;;;;;29.43;23.39;100090.19;5380552;26;20035;-28
2024/04/09 07:14:53;;;;;;;6.30;2.95;;;;;;;28.56;24.20;100079.00;5380767;26;20157;-27
2024/04/09 07:17:19;;;;;;;4.82;2.92;;;;;;;29.39;23.43;100073.56;5380220;26;20077;-28
2024/04/09 07:19:45;;;;;;;5.57;3.40;;;;;;;29.11;23.92;100081.28;5381042;26;20008;-28
2024/04/09 07:22:11;;;;;;;2.85;2.10;;;;;;;29.45;22.84;100079.69;5381918;26;20115;-27
2024/04/09 07:24:36;;;;;;;4.18;2.10;;;;;;;30.08;22.56;100079.34;5380601;26;20000;-27
2024/04/09 07:27:02;;;;;;;3.30;1.77;;;;;;;30.36;22.22;100071.56;5380811;26;19996;-28
2024/04/09 07:29:28;;;;;;;5.88;2.20;;;;;;;30.79;21.87;100079.59;5378184;26;20000;-27
2024/04/09 07:31:54;;;;;;;3.67;1.95;;;;;;;31.11;21.35;100073.75;5380746;26;20077;-31
2024/04/09 07:34:20;;;;;;;5.97;2.58;;;;;;;30.98;21.11;100070.94;5380816;26;20016;-26
2024/04/09 07:36:45;;;;;;;3.33;2.25;;;;;;;31.09;21.66;100065.06;5381035;26;20012;-27
2024/04/09 07:39:14;;;;;;;4.15;2.20;;;;;;;30.62;22.29;100060.47;5380638;26;20078;-30
2024/04/09 07:41:40;;;;;;;5.05;2.38;;;;;;;31.09;21.89;100065.06;5381073;26;20011;-28
2024/04/09 07:44:06;;;;;;;5.53;2.33;;;;;;;31.03;22.15;100066.41;5381104;26;19996;-28
2024/04/09 07:46:31;;;;;;;4.55;2.20;;;;;;;31.51;21.37;100060.41;5380209;26;20011;-29
2024/04/09 07:48:59;;;;;;;6.43;2.67;;;;;;;31.41;21.24;100054.47;5380399;26;20011;-31
2024/04/09 07:51:25;;;;;;;8.52;3.05;;;;;;;31.91;21.31;100045.28;5380594;26;20020;-28
2024/04/09 07:53:51;;;;;;;4.53;2.30;;;;;;;32.23;20.81;100031.84;5379563;26;20077;-28
2024/04/09 07:56:17;;;;;;;4.63;2.20;;;;;;;32.42;21.15;100045.84;5380424;26;20046;-30
2024/04/09 07:58:43;;;;;;;5.22;2.30;;;;;;;31.92;21.35;100041.41;5380791;26;20008;-27
2024/04/09 08:01:08;;;;;;;5.88;2.22;;;;;;;32.20;21.32;100038.84;5380164;26;20000;-27
2024/04/09 08:03:33;;;;;;;4.47;2.15;;;;;;;32.49;20.43;100034.28;5379953;26;20000;-29
2024/04/09 08:05:59;;;;;;;4.88;2.00;;;;;;;32.79;20.29;100042.34;5380286;26;20015;-28
2024/04/09 08:08:24;;;;;;;3.42;1.85;;;;;;;32.95;19.93;100040.47;5380115;26;20278;-28
2024/04/09 08:10:50;;;;;;;6.18;1.88;;;;;;;33.05;19.82;100031.72;5379866;26;19996;-27
2024/04/09 08:13:15;;;;;;;5.60;2.25;;;;;;;32.95;19.41;100032.19;5379881;26;19997;-29
2024/04/09 08:15:41;;;;;;;5.40;2.00;;;;;;;32.03;20.47;100030.81;5380392;26;20000;-27
2024/04/09 08:18:06;;;;;;;4.78;2.05;;;;;;;32.54;20.19;100018.34;5380222;26;20429;-27
2024/04/09 08:20:31;;;;;;;5.30;2.22;;;;;;;32.73;19.83;100023.28;5380247;26;20000;-27
2024/04/09 08:23:00;;;;;;;3.00;2.10;;;;;;;30.66;21.30;100020.22;5380150;26;19993;-30
2024/04/09 08:25:25;;;;;;;4.03;2.33;;;;;;;31.40;20.98;100031.69;5379783;26;20004;-30
2024/04/09 08:27:51;;;;;;;4.15;2.65;;;;;;;29.93;22.63;100018.41;5380280;26;20008;-30
2024/04/09 08:30:23;;;;;;;2.92;2.20;;;;;;;28.45;23.98;100015.50;5379444;26;20011;-28
2024/04/09 08:32:52;;;;;;;5.65;1.85;;;;;;;30.11;22.65;100010.09;5379711;26;20011;-28
2024/04/09 08:35:18;;;;;;;4.05;2.30;;;;;;;29.38;22.79;100003.47;5379363;26;20042;-27
2024/04/09 08:37:44;;;;;;;3.35;2.25;;;;;;;28.45;23.45;99997.16;5378489;26;20036;-27
2024/04/09 08:40:11;;;;;;;4.05;2.20;;;;;;;29.75;21.76;99997.63;5397019;26;20008;-29
2024/04/09 08:42:40;;;;;;;3.97;2.00;;;;;;;30.78;21.17;99995.56;5397762;26;20039;-28
2024/04/09 08:45:11;;;;;;;2.35;1.98;;;;;;;31.20;21.20;99994.81;5390053;26;20006;-29
2024/04/09 08:47:37;;;;;;;2.95;1.90;;;;;;;31.80;20.59;99995.41;5403777;26;20007;-30
2024/04/09 08:50:03;;;;;;;6.68;2.40;;;;;;;31.41;20.69;99988.50;5395634;26;20371;-27
2024/04/09 08:52:32;;;;;;;5.53;2.45;;;;;;;31.66;20.61;99983.91;5393690;26;20429;-27
2024/04/09 08:54:57;;;;;;;;;;;;;;;30.31;21.44;99975.63;5393506;26;20043;-29
2024/04/09 08:57:23;;;;;;;3.08;2.20;;;;;;;29.88;22.12;99969.19;5399122;26;19926;-28
2024/04/09 08:59:48;;;;;;;5.10;2.08;;;;;;;30.59;21.78;99979.53;5387916;26;20039;-29
2024/04/09 09:02:15;;;;;;;4.38;2.30;;;;;;;29.59;22.55;99972.63;5382660;26;20000;-29
2024/04/09 09:04:42;;;;;;;3.70;2.20;;;;;;;29.84;22.84;99972.94;5383475;26;20154;-31
2024/04/09 09:07:18;;;;;;;6.20;2.28;;;;;;;29.81;22.38;99966.16;5382669;26;20000;-27
2024/04/09 09:09:44;;;;;;;5.55;2.40;;;;;;;29.81;22.43;99963.41;5382325;26;20340;-28
2024/04/09 09:12:10;;;;;;;8.05;2.33;;;;;;;30.58;21.84;99955.19;5376447;26;20030;-30
2024/04/09 09:14:37;;;;;;;4.03;2.35;;;;;;;29.79;22.95;99955.50;5367349;26;19995;-30
2024/04/09 09:17:03;;;;;;;5.80;2.30;;;;;;;29.42;22.05;99957.81;5390266;26;20014;-28
2024/04/09 09:19:33;;;;;;;5.13;2.80;;;;;;;28.55;23.33;99952.28;5397648;26;20011;-28
2024/04/09 09:22:08;;;;;;;5.82;3.08;;;;;;;27.58;24.48;99947.47;5405534;26;20010;-28
2024/04/09 09:24:34;;;;;;;7.72;2.55;;;;;;;28.97;23.68;99946.38;5402541;26;20011;-30
2024/04/09 09:27:08;;;;;;;5.22;2.50;;;;;;;29.11;23.85;99946.22;5381959;26;20004;-28
2024/04/09 09:29:35;;;;;;;3.22;2.20;;;;;;;30.01;22.41;99943.50;5382086;26;20015;-32
2024/04/09 09:32:01;;;;;;;4.03;2.40;;;;;;;30.19;22.09;99949.69;5382200;26;20440;-28
2024/04/09 09:34:35;;;;;;;6.57;2.58;;;;;;;30.22;22.42;99942.75;5382035;26;20047;-26
2024/04/09 09:37:01;;;;;;;5.13;2.45;;;;;;;30.90;21.74;99937.22;5382049;26;20000;-30
2024/04/09 09:39:30;;;;;;;9.93;2.45;;;;;;;31.80;21.24;99936.84;5382404;26;20444;-28
2024/04/09 09:41:57;;;;;;;6.20;2.20;;;;;;;32.12;20.88;99941.47;5380119;26;20015;-32
2024/04/09 09:44:23;;;;;;;4.03;2.28;;;;;;;32.67;20.20;99936.53;5380440;26;20134;-28
2024/04/09 09:46:49;;;;;;;7.85;2.30;;;;;;;32.52;19.26;99931.72;5378717;26;19997;-27
2024/04/09 09:49:17;;;;;;;4.20;2.17;;;;;;;32.13;20.04;99928.53;5377933;26;20069;-26
2024/04/09 09:51:42;;;;;;;7.07;2.15;;;;;;;32.04;20.20;99934.13;5378616;26;20011;-30
2024/04/09 09:54:08;;;;;;;6.15;2.15;;;;;;;32.09;19.39;99928.41;5379189;26;20004;-27
2024/04/09 09:56:36;;;;;;;6.47;2.50;;;;;;;32.11;19.73;99926.09;5377546;26;19996;-26
2024/04/09 09:59:03;;;;;;;5.00;2.30;;;;;;;31.64;20.00;99922.94;5379431;26;20407;-30
2024/04/09 10:01:29;;;;;;;4.55;2.33;;;;;;;31.81;19.74;99924.69;5381436;26;20000;-30
2024/04/09 10:03:55;;;;;;;3.30;2.10;;;;;;;30.97;20.46;99920.19;5382549;26;20008;-28
2024/04/09 10:06:20;;;;;;;3.50;2.10;;;;;;;31.03;20.68;99913.31;5382174;26;19997;-28
2024/04/09 10:08:47;;;;;;;4.70;2.08;;;;;;;30.42;21.07;99919.25;5381509;26;20012;-28
2024/04/09 10:11:12;;;;;;;3.08;1.98;;;;;;;30.34;20.67;99901.69;5382047;26;20000;-29
2024/04/09 10:13:49;;;;;;;5.38;2.13;;;;;;;29.28;21.72;99898.84;5381413;26;20328;-30
2024/04/09 10:16:18;;;;;;;23.48;3.33;;;;;;;29.01;21.57;99898.84;5382017;26;20154;-26
2024/04/09 10:18:46;;;;;;;5.47;2.20;;;;;;;28.50;22.16;99894.91;5381660;26;20811;-29
2024/04/09 10:21:15;;;;;;;6.25;2.90;;;;;;;28.30;22.74;99881.88;5381282;26;20012;-30
2024/04/09 10:23:41;;;;;;;4.85;2.00;;;;;;;28.02;22.34;99890.31;5382700;26;20000;-27
2024/04/09 10:26:09;;;;;;;3.78;1.83;;;;;;;27.78;22.97;99891.50;5382026;26;20157;-28
2024/04/09 10:28:35;;;;;;;15.73;2.50;;;;;;;28.37;22.28;99884.91;5381965;26;20336;-27
2024/04/09 10:31:14;;;;;;;3.67;1.90;;;;;;;29.40;21.11;99877.88;5382303;26;19996;-28
2024/04/09 10:33:40;;;;;;;4.38;1.80;;;;;;;29.31;21.57;99873.53;5382037;26;20332;-30
2024/04/09 10:36:07;;;;;;;4.28;1.52;;;;;;;29.90;21.12;99870.94;5382266;26;20428;-31
2024/04/09 10:38:36;;;;;;;2.40;1.77;;;;;;;30.48;20.75;99864.97;5382697;26;20024;-29
2024/04/09 10:41:02;;;;;;;3.70;1.70;;;;;;;31.09;20.54;99856.22;5381652;26;20472;-27
2024/04/09 10:43:29;;;;;;;3.05;1.95;;;;;;;31.20;19.78;99862.91;5381526;26;19999;-28
2024/04/09 10:45:56;;;;;;;4.78;1.75;;;;;;;30.81;19.85;99856.78;5381725;26;20011;-28
2024/04/09 10:48:22;;;;;;;5.47;1.70;;;;;;;30.88;20.13;99858.97;5381370;26;20011;-27
2024/04/09 10:50:48;;;;;;;1.77;1.17;;;;;;;30.82;18.43;99868.56;5381964;26;20000;-28
2024/04/09 10:53:14;;;;;;;2.03;1.25;;;;;;;29.81;19.07;99864.69;5381561;26;20111;-28
2024/04/09 10:55:39;;;;;;;4.20;1.40;;;;;;;28.91;20.24;99849.09;5381340;26;20011;-28
2024/04/09 10:58:05;;;;;;;1.52;1.27;;;;;;;27.91;20.66;99853.44;5381504;26;19996;-27
2024/04/09 11:00:30;;;;;;;2.28;1.20;;;;;;;28.21;20.15;99849.00;5381263;26;19996;-28
2024/04/09 11:02:57;;;;;;;2.30;1.45;;;;;;;28.91;20.21;99849.09;5380710;26;20008;-29
2024/04/09 11:05:24;;;;;;;3.25;1.55;;;;;;;29.12;20.27;99849.22;5379998;26;20416;-27
2024/04/09 11:07:49;;;;;;;2.05;1.50;;;;;;;29.79;19.98;99848.56;5381095;26;19996;-29
2024/04/09 11:10:19;;;;;;;3.15;1.50;;;;;;;29.81;19.22;99856.44;5380741;26;20000;-28
2024/04/09 11:12:51;;;;;;;1.25;1.13;;;;;;;29.35;19.41;99842.41;5380618;26;20433;-26
2024/04/09 11:15:18;;;;;;;4.32;1.40;;;;;;;28.85;20.06;99842.97;5380874;26;20000;-27
2024/04/09 11:17:43;;;;;;;2.60;1.55;;;;;;;29.14;19.94;99834.09;5380289;26;20007;-29
2024/04/09 11:20:10;;;;;;;1.73;1.40;;;;;;;29.27;19.63;99837.75;5380379;26;20011;-27
2024/04/09 11:22:41;;;;;;;5.13;1.80;;;;;;;29.22;20.58;99825.03;5378907;26;20530;-27
2024/04/09 11:25:19;;;;;;;3.05;1.60;;;;;;;29.69;19.44;99828.91;5381237;26;20064;-28